Time;durP1;ratioP1;P1;durP2;ratioP2;P2;SDS_P1;SDS_P2;PMS_P1;PMS_P2;Temp;Humidity;BMP_temperature;BMP_pressure;BME280_temperature;BME280_humidity;BME280_pressure;Samples;Min_cycle;Max_cycle;Signal;HPM_P1;HPM_P2
2021/06/24 00:01:12;;;;;;;11.02;5.50;;;;;;;18.70;55.47;100353.72;5072097;28;20048;-87
2021/06/24 00:03:39;;;;;;;13.23;5.40;;;;;;;18.68;55.30;100360.97;5073151;28;20128;-88
2021/06/24 00:06:06;;;;;;;13.15;5.22;;;;;;;18.66;55.65;100365.59;5071888;28;20111;-87
2021/06/24 00:08:34;;;;;;;9.00;4.95;;;;;;;18.64;55.46;100360.38;5071667;28;20045;-87
2021/06/24 00:11:03;;;;;;;9.57;4.97;;;;;;;18.64;55.75;100356.91;5073214;28;20130;-88
2021/06/24 00:13:29;;;;;;;9.55;4.57;;;;;;;18.63;55.56;100366.69;5072986;28;20044;-85
2021/06/24 00:15:56;;;;;;;11.43;5.18;;;;;;;18.60;55.55;100367.81;5071705;28;20053;-88
2021/06/24 00:18:23;;;;;;;8.85;4.50;;;;;;;18.61;55.71;100376.63;5072981;28;20131;-87
2021/06/24 00:20:51;;;;;;;11.20;4.38;;;;;;;18.61;56.15;100380.16;5071799;28;20049;-86
2021/06/24 00:23:18;;;;;;;8.63;4.55;;;;;;;18.60;55.61;100386.47;5071556;28;20490;-88
2021/06/24 00:25:45;;;;;;;12.60;5.00;;;;;;;18.61;55.65;100395.28;5072482;28;20048;-88
2021/06/24 00:28:15;;;;;;;8.35;5.00;;;;;;;18.60;55.71;100389.13;5071249;28;20098;-88
2021/06/24 00:30:49;;;;;;;11.38;5.38;;;;;;;18.57;56.25;100384.03;5072664;28;20056;-88
2021/06/24 00:33:16;;;;;;;12.80;5.20;;;;;;;18.57;55.80;100381.38;5071436;28;20052;-85
2021/06/24 00:35:43;;;;;;;8.35;4.45;;;;;;;18.55;55.33;100385.13;5072375;28;20045;-88
2021/06/24 00:38:10;;;;;;;14.38;5.80;;;;;;;18.52;55.50;100396.91;5072361;28;20110;-87
2021/06/24 00:40:39;;;;;;;10.98;4.90;;;;;;;18.48;55.60;100392.78;5070806;28;20407;-85
2021/06/24 00:43:09;;;;;;;6.95;4.35;;;;;;;18.45;55.91;100387.69;5069457;28;20126;-86
2021/06/24 00:45:36;;;;;;;14.38;5.68;;;;;;;18.45;55.79;100393.03;5072594;28;20049;-87
2021/06/24 00:48:05;;;;;;;9.02;4.65;;;;;;;18.44;55.75;100391.34;5072382;28;20517;-86
2021/06/24 00:50:33;;;;;;;9.82;4.85;;;;;;;18.42;55.85;100385.25;5071092;28;20102;-86
2021/06/24 00:53:00;;;;;;;11.27;5.68;;;;;;;18.42;55.72;100379.94;5071316;28;20696;-88
2021/06/24 00:55:40;;;;;;;8.60;4.85;;;;;;;18.42;55.59;100380.78;5072007;28;20045;-88
2021/06/24 00:58:09;;;;;;;10.50;4.72;;;;;;;18.41;56.02;100384.44;5070982;28;20048;-88
2021/06/24 01:00:37;;;;;;;9.10;5.32;;;;;;;18.39;55.90;100380.19;5072304;28;20048;-86
2021/06/24 01:03:04;;;;;;;13.38;5.10;;;;;;;18.39;55.63;100377.53;5072039;28;20490;-88
2021/06/24 01:05:31;;;;;;;12.38;5.05;;;;;;;18.37;55.79;100377.66;5071706;28;20048;-87
2021/06/24 01:07:58;;;;;;;12.23;5.13;;;;;;;18.35;55.95;100380.44;5072366;28;20582;-85
2021/06/24 01:10:25;;;;;;;8.02;4.80;;;;;;;18.34;55.73;100384.09;5072170;28;20449;-86
2021/06/24 01:12:53;;;;;;;9.93;4.85;;;;;;;18.33;55.92;100390.38;5070667;28;20052;-87
2021/06/24 01:15:20;;;;;;;12.55;4.97;;;;;;;18.30;56.10;100390.63;5071653;28;20102;-88
2021/06/24 01:17:47;;;;;;;10.23;5.32;;;;;;;18.28;55.86;100387.22;5071800;28;20105;-86
2021/06/24 01:20:16;;;;;;;11.15;5.15;;;;;;;18.27;56.21;100390.88;5071731;28;20098;-86
2021/06/24 01:22:43;;;;;;;8.18;4.78;;;;;;;18.26;55.99;100385.66;5072057;28;20409;-86
2021/06/24 01:25:10;;;;;;;10.27;5.55;;;;;;;18.23;56.30;100382.28;5071921;28;20052;-86
2021/06/24 01:27:37;;;;;;;11.75;5.45;;;;;;;18.22;56.31;100377.06;5072161;28;20055;-86
2021/06/24 01:30:04;;;;;;;9.02;5.45;;;;;;;18.21;56.33;100380.69;5070852;28;20052;-86
2021/06/24 01:32:31;;;;;;;11.32;5.47;;;;;;;18.18;56.56;100379.13;5070517;28;20654;-88
2021/06/24 01:34:58;;;;;;;13.38;5.70;;;;;;;18.18;56.39;100370.28;5071591;28;20045;-86
2021/06/24 01:37:24;;;;;;;10.93;5.55;;;;;;;18.17;56.40;100371.25;5071623;28;20053;-85
2021/06/24 01:39:51;;;;;;;9.13;5.80;;;;;;;18.14;56.25;100360.84;5071798;28;20049;-87
2021/06/24 01:42:18;;;;;;;9.70;5.28;;;;;;;18.12;56.55;100368.13;5071841;28;20059;-85
2021/06/24 01:44:44;;;;;;;10.10;5.03;;;;;;;18.07;56.33;100366.63;5070320;28;20075;-86
2021/06/24 01:47:12;;;;;;;8.25;4.90;;;;;;;18.05;56.68;100363.22;5070434;28;20052;-86
2021/06/24 01:49:39;;;;;;;10.05;5.50;;;;;;;18.04;56.79;100358.88;5071897;28;20052;-88
2021/06/24 01:52:06;;;;;;;10.57;5.50;;;;;;;18.03;56.53;100359.84;5070648;28;20057;-86
2021/06/24 01:54:33;;;;;;;7.10;4.82;;;;;;;18.04;56.59;100358.88;5070007;28;20049;-88
2021/06/24 01:57:00;;;;;;;13.25;5.30;;;;;;;18.03;56.88;100359.84;5071401;28;20048;-88
2021/06/24 01:59:28;;;;;;;7.53;5.45;;;;;;;18.03;56.76;100348.34;5070174;28;20102;-86
2021/06/24 02:01:54;;;;;;;12.18;5.90;;;;;;;18.02;56.70;100341.31;5071915;28;20060;-87
2021/06/24 02:04:26;;;;;;;11.23;4.93;;;;;;;18.01;57.24;100331.66;5073137;28;20044;-88
2021/06/24 02:06:53;;;;;;;9.87;4.83;;;;;;;18.03;56.75;100327.03;5074299;28;20060;-85
2021/06/24 02:09:20;;;;;;;10.88;4.82;;;;;;;18.04;56.59;100328.72;5075357;28;20052;-84
2021/06/24 02:11:47;;;;;;;8.75;4.57;;;;;;;18.04;56.80;100323.38;5074131;28;20181;-88
2021/06/24 02:14:13;;;;;;;9.65;5.25;;;;;;;18.03;56.71;100321.69;5075073;28;20064;-88
2021/06/24 02:16:40;;;;;;;11.38;5.97;;;;;;;18.04;56.66;100328.72;5074915;28;20040;-88
2021/06/24 02:19:07;;;;;;;10.70;4.95;;;;;;;18.03;56.99;100325.22;5075281;28;20059;-86
2021/06/24 02:21:34;;;;;;;8.13;5.40;;;;;;;18.02;57.19;100315.50;5074026;28;20052;-87
2021/06/24 02:24:00;;;;;;;8.30;5.35;;;;;;;18.02;56.87;100314.69;5074779;28;20497;-88
2021/06/24 02:26:27;;;;;;;13.25;5.45;;;;;;;17.99;56.76;100307.78;5075022;28;20051;-86
2021/06/24 02:28:53;;;;;;;13.77;5.20;;;;;;;17.97;56.68;100312.38;5074966;28;20052;-88
2021/06/24 02:31:20;;;;;;;10.75;5.88;;;;;;;17.94;57.02;100325.97;5073847;28;20125;-85
2021/06/24 02:33:47;;;;;;;8.02;5.53;;;;;;;17.91;56.83;100316.38;5074688;28;20056;-86
2021/06/24 02:36:14;;;;;;;10.70;5.68;;;;;;;17.88;57.28;100318.44;5074091;28;20086;-86
2021/06/24 02:38:40;;;;;;;7.78;5.40;;;;;;;17.86;56.90;100320.38;5073723;28;20056;-86
2021/06/24 02:41:07;;;;;;;7.32;4.97;;;;;;;17.81;56.93;100313.59;5073114;28;20110;-85
2021/06/24 02:43:34;;;;;;;8.63;5.10;;;;;;;17.77;57.09;100306.81;5074737;28;20053;-86
2021/06/24 02:46:02;;;;;;;8.93;5.68;;;;;;;17.71;56.82;100307.28;5072797;28;20056;-86
2021/06/24 02:48:29;;;;;;;8.70;5.18;;;;;;;17.67;56.99;100298.72;5074865;28;20440;-85
2021/06/24 02:50:55;;;;;;;9.05;5.55;;;;;;;17.62;57.15;100303.56;5074398;28;20059;-84
2021/06/24 02:53:22;;;;;;;11.50;5.15;;;;;;;17.58;57.07;100304.75;5074647;28;20052;-87
2021/06/24 02:55:48;;;;;;;10.02;5.40;;;;;;;17.53;56.89;100304.28;5074734;28;20049;-85
2021/06/24 02:58:15;;;;;;;10.35;5.68;;;;;;;17.47;57.17;100304.72;5073490;28;20049;-85
2021/06/24 03:00:41;;;;;;;9.15;5.25;;;;;;;17.40;57.32;100302.56;5074721;28;20102;-87
2021/06/24 03:03:08;;;;;;;10.05;5.65;;;;;;;17.36;57.22;100314.41;5074519;28;20448;-85
2021/06/24 03:05:35;;;;;;;9.23;6.10;;;;;;;17.30;57.50;100315.72;5072706;28;20426;-85
2021/06/24 03:08:01;;;;;;;9.40;6.38;;;;;;;17.27;57.51;100312.47;5074283;28;20160;-87
2021/06/24 03:10:28;;;;;;;10.32;6.47;;;;;;;17.23;57.82;100305.66;5073226;28;20048;-87
2021/06/24 03:12:55;;;;;;;10.15;6.13;;;;;;;17.19;57.75;100302.38;5072843;28;20052;-85
2021/06/24 03:15:22;;;;;;;8.32;5.90;;;;;;;17.16;57.68;100299.97;5074123;28;20072;-85
2021/06/24 03:17:49;;;;;;;11.77;5.43;;;;;;;17.13;57.93;100300.19;5074131;28;20045;-85
2021/06/24 03:20:16;;;;;;;7.78;5.50;;;;;;;17.08;58.09;100295.22;5072591;28;20269;-87
2021/06/24 03:22:43;;;;;;;8.82;5.82;;;;;;;17.05;58.29;100296.28;5074167;28;20114;-85
2021/06/24 03:25:12;;;;;;;8.63;5.63;;;;;;;17.03;58.32;100289.38;5073835;28;20482;-87
2021/06/24 03:27:39;;;;;;;10.10;5.63;;;;;;;17.02;58.29;100291.19;5072975;28;20410;-85
2021/06/24 03:30:06;;;;;;;10.48;6.43;;;;;;;17.00;58.49;100289.59;5072422;28;20501;-87
2021/06/24 03:32:33;;;;;;;8.95;6.10;;;;;;;16.98;58.53;100284.41;5072594;28;20059;-85
2021/06/24 03:34:59;;;;;;;8.50;5.68;;;;;;;16.97;58.57;100281.88;5073544;28;20048;-85
2021/06/24 03:37:26;;;;;;;10.25;6.35;;;;;;;16.96;58.68;100290.81;5073457;28;20052;-87
2021/06/24 03:39:52;;;;;;;8.38;6.13;;;;;;;16.94;58.71;100290.94;5073509;28;20060;-87
2021/06/24 03:42:19;;;;;;;12.32;5.70;;;;;;;16.92;58.80;100288.38;5073740;28;20075;-85
2021/06/24 03:44:46;;;;;;;10.75;6.47;;;;;;;16.92;58.89;100290.19;5072253;28;20129;-85
2021/06/24 03:47:12;;;;;;;16.02;6.82;;;;;;;16.92;59.11;100290.19;5073715;28;20114;-85
2021/06/24 03:49:39;;;;;;;10.50;6.03;;;;;;;16.91;59.14;100289.34;5072108;28;20057;-85
2021/06/24 03:52:06;;;;;;;9.23;6.20;;;;;;;16.89;58.98;100288.59;5071876;28;20532;-86
2021/06/24 03:54:32;;;;;;;10.32;6.55;;;;;;;16.87;58.97;100293.22;5072994;28;20053;-87
2021/06/24 03:56:59;;;;;;;10.77;6.82;;;;;;;16.85;59.11;100292.47;5073652;28;20052;-84
2021/06/24 03:59:25;;;;;;;11.25;6.38;;;;;;;16.84;59.04;100288.09;5073161;28;20114;-85
2021/06/24 04:01:52;;;;;;;11.85;6.45;;;;;;;16.83;59.26;100297.06;5073326;28;20049;-85
2021/06/24 04:04:19;;;;;;;10.57;6.50;;;;;;;16.82;59.31;100287.38;5072927;28;20053;-87
2021/06/24 04:06:45;;;;;;;10.25;5.85;;;;;;;16.82;59.28;100289.19;5071656;28;20502;-84
2021/06/24 04:09:12;;;;;;;15.10;6.15;;;;;;;16.81;59.29;100288.34;5072148;28;20444;-88
2021/06/24 04:11:39;;;;;;;9.52;5.72;;;;;;;16.80;59.33;100290.16;5071680;28;20048;-86
2021/06/24 04:14:05;;;;;;;9.52;6.07;;;;;;;16.78;59.29;100289.41;5072752;28;20052;-85
2021/06/24 04:16:32;;;;;;;10.63;6.43;;;;;;;16.79;59.48;100292.94;5071905;28;20098;-86
2021/06/24 04:18:59;;;;;;;14.98;6.70;;;;;;;16.77;59.45;100293.03;5073001;28;20135;-85
2021/06/24 04:21:25;;;;;;;11.20;6.82;;;;;;;16.78;59.51;100299.19;5072756;28;20056;-86
2021/06/24 04:23:52;;;;;;;12.52;7.10;;;;;;;16.78;59.70;100299.19;5072766;28;20052;-85
2021/06/24 04:26:19;;;;;;;10.15;6.38;;;;;;;16.78;59.74;100294.72;5072118;28;20417;-86
2021/06/24 04:28:46;;;;;;;12.63;6.53;;;;;;;16.80;59.86;100295.47;5072787;28;20476;-85
2021/06/24 04:31:12;;;;;;;11.68;6.90;;;;;;;16.80;60.07;100295.47;5073387;28;20060;-86
2021/06/24 04:33:39;;;;;;;11.38;7.30;;;;;;;16.83;60.08;100294.41;5072242;28;20106;-86
2021/06/24 04:36:06;;;;;;;10.85;6.72;;;;;;;16.85;60.24;100289.81;5071528;28;20048;-84
2021/06/24 04:38:32;;;;;;;7.53;6.22;;;;;;;16.89;60.11;100295.72;5072582;28;20482;-84
2021/06/24 04:40:59;;;;;;;12.00;6.55;;;;;;;16.91;60.07;100283.19;5072428;28;20044;-86
2021/06/24 04:43:25;;;;;;;10.48;6.47;;;;;;;16.94;60.16;100282.94;5072107;28;20056;-86
2021/06/24 04:45:52;;;;;;;10.13;6.57;;;;;;;16.97;59.97;100281.88;5072099;28;20098;-86
2021/06/24 04:48:19;;;;;;;11.35;6.45;;;;;;;16.98;60.17;100287.06;5072013;28;20044;-86
2021/06/24 04:50:46;;;;;;;7.68;5.75;;;;;;;17.01;59.98;100284.16;5072375;28;20597;-84
2021/06/24 04:53:13;;;;;;;8.05;5.63;;;;;;;17.03;59.74;100300.88;5072143;28;20060;-84
2021/06/24 04:55:40;;;;;;;7.57;6.05;;;;;;;17.03;59.98;100298.22;5072104;28;20091;-86
2021/06/24 04:58:07;;;;;;;9.55;6.55;;;;;;;17.04;59.97;100299.94;5072648;28;20102;-86
2021/06/24 05:00:35;;;;;;;9.60;6.25;;;;;;;17.06;59.91;100295.34;5070782;28;20056;-87
2021/06/24 05:03:03;;;;;;;8.02;5.70;;;;;;;17.09;59.89;100285.44;5070829;28;20048;-85
2021/06/24 05:05:30;;;;;;;9.32;5.30;;;;;;;17.12;59.70;100295.84;5071759;28;20052;-86
2021/06/24 05:07:58;;;;;;;9.15;5.35;;;;;;;17.15;59.64;100298.25;5071924;28;20091;-85
2021/06/24 05:10:25;;;;;;;8.18;4.93;;;;;;;17.17;59.46;100299.00;5071945;28;20178;-85
2021/06/24 05:12:51;;;;;;;9.77;5.53;;;;;;;17.18;59.73;100300.69;5072257;28;20052;-86
2021/06/24 05:15:18;;;;;;;9.13;5.47;;;;;;;17.21;59.65;100296.94;5071516;28;20057;-85
2021/06/24 05:17:45;;;;;;;8.60;5.30;;;;;;;17.24;59.85;100288.72;5071618;28;20056;-88
2021/06/24 05:20:12;;;;;;;6.07;4.32;;;;;;;17.29;59.56;100291.88;5071183;28;20056;-85
2021/06/24 05:22:40;;;;;;;6.63;4.20;;;;;;;17.32;59.28;100294.31;5071058;28;20060;-85
2021/06/24 05:25:08;;;;;;;6.32;3.95;;;;;;;17.37;59.30;100299.25;5071903;28;20052;-85
2021/06/24 05:27:35;;;;;;;6.18;3.97;;;;;;;17.40;58.80;100291.06;5071932;28;20052;-87
2021/06/24 05:30:03;;;;;;;7.32;4.10;;;;;;;17.44;58.75;100300.50;5070582;28;20052;-84
2021/06/24 05:32:30;;;;;;;11.27;4.13;;;;;;;17.48;58.98;100304.63;5071428;28;20056;-86
2021/06/24 05:34:57;;;;;;;4.35;3.85;;;;;;;17.52;59.12;100303.41;5071410;28;20106;-84
2021/06/24 05:37:23;;;;;;;7.80;4.13;;;;;;;17.55;59.04;100300.53;5071965;28;20040;-87
2021/06/24 05:39:50;;;;;;;8.35;4.53;;;;;;;17.60;59.03;100301.97;5075940;28;20679;-86
2021/06/24 05:42:17;;;;;;;8.85;4.25;;;;;;;17.65;58.89;100297.97;5075998;28;20052;-86
2021/06/24 05:44:44;;;;;;;7.15;4.15;;;;;;;17.72;58.56;100301.03;5074012;28;20048;-86
2021/06/24 05:47:10;;;;;;;9.35;3.97;;;;;;;17.78;58.73;100299.66;5074341;28;20057;-84
2021/06/24 05:49:37;;;;;;;6.78;4.13;;;;;;;17.83;58.55;100298.34;5075472;28;20098;-86
2021/06/24 05:52:04;;;;;;;6.53;3.95;;;;;;;17.90;58.52;100297.88;5074987;28;20052;-85
2021/06/24 05:54:31;;;;;;;7.03;4.15;;;;;;;17.94;58.31;100296.66;5075474;28;20460;-87
2021/06/24 05:56:57;;;;;;;7.38;4.47;;;;;;;17.98;58.04;100290.94;5075716;28;20059;-86
2021/06/24 05:59:24;;;;;;;5.95;4.20;;;;;;;18.03;58.11;100284.41;5074314;28;20044;-87
2021/06/24 06:01:51;;;;;;;9.43;4.53;;;;;;;18.05;57.91;100285.97;5074483;28;20421;-86
2021/06/24 06:04:18;;;;;;;6.45;4.05;;;;;;;18.09;57.94;100282.13;5075089;28;20106;-86
2021/06/24 06:06:45;;;;;;;7.22;4.05;;;;;;;18.14;58.10;100281.78;5074957;28;20040;-84
2021/06/24 06:09:12;;;;;;;7.13;4.43;;;;;;;18.16;57.75;100287.81;5074441;28;20048;-87
2021/06/24 06:11:39;;;;;;;6.32;4.00;;;;;;;18.18;57.55;100287.69;5074250;28;20101;-85
2021/06/24 06:14:06;;;;;;;7.88;4.15;;;;;;;18.19;57.59;100281.38;5075210;28;20052;-86
2021/06/24 06:16:32;;;;;;;8.77;4.45;;;;;;;18.20;57.59;100285.72;5074771;28;20059;-86
2021/06/24 06:19:02;;;;;;;8.50;4.63;;;;;;;18.21;57.48;100276.78;5075310;28;20048;-86
2021/06/24 06:21:30;;;;;;;8.93;4.70;;;;;;;18.21;57.73;100288.28;5074579;28;20192;-87
2021/06/24 06:23:57;;;;;;;9.30;4.72;;;;;;;18.23;57.78;100288.16;5074921;28;20375;-85
2021/06/24 06:26:25;;;;;;;9.02;4.53;;;;;;;18.27;57.69;100275.44;5074951;28;20055;-85
2021/06/24 06:28:52;;;;;;;5.15;3.92;;;;;;;18.28;57.64;100267.31;5073870;28;20110;-86
2021/06/24 06:31:20;;;;;;;5.28;4.30;;;;;;;18.33;57.74;100267.78;5074739;28;20067;-85
2021/06/24 06:33:47;;;;;;;8.63;3.65;;;;;;;18.38;58.02;100280.72;5073299;28;20543;-85
2021/06/24 06:36:13;;;;;;;5.60;4.03;;;;;;;18.45;58.04;100281.06;5074779;28;20114;-86
2021/06/24 06:38:40;;;;;;;7.95;4.53;;;;;;;18.51;58.04;100283.25;5073543;28;20105;-86
2021/06/24 06:41:08;;;;;;;6.07;4.25;;;;;;;18.57;58.09;100281.88;5074622;28;20075;-87
2021/06/24 06:43:35;;;;;;;4.93;4.00;;;;;;;18.65;57.73;100286.59;5073533;28;20079;-87
2021/06/24 06:46:01;;;;;;;12.05;4.47;;;;;;;18.71;57.71;100278.94;5074236;28;20044;-87
2021/06/24 06:48:28;;;;;;;6.90;3.85;;;;;;;18.81;58.07;100283.47;5073784;28;20056;-87
2021/06/24 06:50:55;;;;;;;5.63;3.85;;;;;;;18.89;57.80;100286.34;5073191;28;20048;-85
2021/06/24 06:53:23;;;;;;;7.53;4.10;;;;;;;18.97;57.51;100283.03;5073292;28;20056;-87
2021/06/24 06:55:50;;;;;;;7.18;3.78;;;;;;;19.04;57.34;100283.38;5072871;28;20048;-87
2021/06/24 06:58:16;;;;;;;8.38;4.63;;;;;;;19.10;57.17;100288.22;5074129;28;20052;-86
2021/06/24 07:00:43;;;;;;;4.50;3.85;;;;;;;19.16;57.07;100284.16;5074636;28;20072;-85
2021/06/24 07:03:10;;;;;;;7.20;4.78;;;;;;;19.21;57.17;100290.00;5074613;28;20060;-86
2021/06/24 07:05:36;;;;;;;7.18;4.55;;;;;;;19.26;56.69;100288.59;5072179;28;20547;-87
2021/06/24 07:08:04;;;;;;;9.60;4.13;;;;;;;19.31;56.67;100285.53;5074503;28;20048;-86
2021/06/24 07:10:30;;;;;;;4.60;3.92;;;;;;;19.35;56.63;100289.63;5074069;28;20053;-85
2021/06/24 07:12:57;;;;;;;7.57;3.97;;;;;;;19.39;56.68;100284.88;5074394;28;20056;-84
2021/06/24 07:15:24;;;;;;;8.07;4.45;;;;;;;19.44;56.50;100292.50;5073963;28;20052;-86
2021/06/24 07:17:51;;;;;;;6.43;4.03;;;;;;;19.48;56.56;100289.41;5074187;28;20127;-86
2021/06/24 07:20:18;;;;;;;6.57;4.43;;;;;;;19.56;56.40;100288.78;5073972;28;20110;-86
2021/06/24 07:22:45;;;;;;;6.75;4.43;;;;;;;19.62;56.57;100287.41;5072928;28;20826;-86
2021/06/24 07:25:18;;;;;;;8.13;4.45;;;;;;;19.69;56.39;100293.03;5073768;28;20505;-86
2021/06/24 07:27:45;;;;;;;6.65;4.13;;;;;;;19.76;56.18;100291.50;5072671;28;20052;-86
2021/06/24 07:30:13;;;;;;;9.05;4.35;;;;;;;19.82;56.32;100293.66;5072401;28;20685;-85
2021/06/24 07:32:39;;;;;;;9.35;4.28;;;;;;;19.89;56.06;100288.63;5073899;28;20053;-86
2021/06/24 07:35:07;;;;;;;5.95;4.57;;;;;;;19.95;56.00;100290.75;5072419;28;20109;-86
2021/06/24 07:37:34;;;;;;;7.82;4.68;;;;;;;20.02;55.86;100291.94;5072020;28;20076;-86
2021/06/24 07:40:06;;;;;;;8.85;4.50;;;;;;;20.10;55.43;100293.91;5072301;28;20505;-88
2021/06/24 07:42:32;;;;;;;10.02;4.60;;;;;;;20.18;55.21;100303.91;5073215;28;20058;-88
2021/06/24 07:44:59;;;;;;;12.45;4.32;;;;;;;20.22;54.93;100293.81;5071799;28;20458;-88
2021/06/24 07:47:26;;;;;;;6.20;4.40;;;;;;;20.26;54.93;100295.22;5073221;28;20041;-87
2021/06/24 07:49:52;;;;;;;6.38;3.90;;;;;;;20.30;55.00;100291.28;5072324;28;20137;-87
2021/06/24 07:52:19;;;;;;;6.20;4.05;;;;;;;20.35;55.00;100291.72;5073227;28;20410;-87
2021/06/24 07:54:46;;;;;;;6.30;4.13;;;;;;;20.37;54.95;100292.41;5072531;28;20170;-86
2021/06/24 07:57:18;;;;;;;6.18;4.10;;;;;;;20.41;54.79;100293.00;5072241;28;20103;-87
2021/06/24 07:59:44;;;;;;;5.35;4.18;;;;;;;20.46;55.10;100296.09;5071401;28;20053;-87
2021/06/24 08:02:11;;;;;;;7.10;4.63;;;;;;;20.51;54.77;100293.00;5072959;28;20059;-87
2021/06/24 08:04:37;;;;;;;4.80;3.83;;;;;;;20.55;54.61;100289.91;5071663;28;20056;-85
2021/06/24 08:07:04;;;;;;;9.70;4.57;;;;;;;20.62;54.55;100294.69;5072770;28;20059;-85
2021/06/24 08:09:31;;;;;;;6.18;4.40;;;;;;;20.67;54.47;100293.28;5071807;28;20063;-88
2021/06/24 08:11:57;;;;;;;7.72;4.20;;;;;;;20.74;54.26;100292.75;5071707;28;20497;-85
2021/06/24 08:14:24;;;;;;;8.00;4.05;;;;;;;20.83;54.51;100287.34;5072974;28;20049;-86
2021/06/24 08:16:51;;;;;;;7.32;4.45;;;;;;;20.93;54.77;100289.25;5073071;28;20052;-86
2021/06/24 08:19:18;;;;;;;7.32;3.97;;;;;;;21.02;54.04;100280.34;5072625;28;20127;-87
2021/06/24 08:21:45;;;;;;;5.88;3.97;;;;;;;21.13;54.12;100286.53;5072891;28;20048;-88
2021/06/24 08:24:12;;;;;;;6.07;4.38;;;;;;;21.20;53.66;100280.44;5072345;28;20078;-86
2021/06/24 08:26:38;;;;;;;6.57;4.40;;;;;;;21.29;52.95;100285.91;5072254;28;20044;-86
2021/06/24 08:29:05;;;;;;;7.53;4.47;;;;;;;21.34;53.26;100286.31;5071497;28;20053;-87
2021/06/24 08:31:32;;;;;;;8.20;4.75;;;;;;;21.38;53.36;100279.69;5071343;28;20052;-86
2021/06/24 08:33:59;;;;;;;6.63;4.68;;;;;;;21.44;53.21;100279.13;5072530;28;20045;-85
2021/06/24 08:36:26;;;;;;;6.10;4.93;;;;;;;21.50;53.52;100276.84;5072383;28;20052;-85
2021/06/24 08:38:53;;;;;;;10.10;4.50;;;;;;;21.53;52.94;100269.34;5072503;28;20048;-88
2021/06/24 08:41:25;;;;;;;6.90;4.57;;;;;;;21.57;53.25;100278.78;5071214;28;20060;-87
2021/06/24 08:43:52;;;;;;;5.97;4.53;;;;;;;21.64;53.54;100272.84;5072241;28;20048;-85
2021/06/24 08:46:20;;;;;;;9.63;4.93;;;;;;;21.68;53.05;100269.72;5072469;28;20059;-88
2021/06/24 08:48:49;;;;;;;6.85;4.57;;;;;;;21.74;53.17;100271.84;5071018;28;20075;-87
2021/06/24 08:51:17;;;;;;;6.47;4.53;;;;;;;21.83;53.12;100267.44;5072286;28;20544;-85
2021/06/24 08:53:46;;;;;;;7.57;4.70;;;;;;;21.90;52.85;100259.63;5072659;28;20048;-88
2021/06/24 08:56:15;;;;;;;8.27;5.22;;;;;;;21.99;52.40;100264.09;5070933;28;20051;-86
2021/06/24 08:58:43;;;;;;;5.70;4.95;;;;;;;22.05;52.77;100259.97;5070702;28;20044;-87
2021/06/24 09:01:10;;;;;;;6.18;4.43;;;;;;;22.13;52.92;100261.91;5072027;28;20498;-85
2021/06/24 09:03:37;;;;;;;7.10;4.63;;;;;;;22.19;52.79;100260.44;5071978;28;20064;-87
2021/06/24 09:06:10;;;;;;;6.00;4.57;;;;;;;22.25;52.48;100265.22;5070831;28;20098;-87
2021/06/24 09:08:38;;;;;;;8.75;4.72;;;;;;;22.35;52.25;100259.78;5071062;28;20072;-86
2021/06/24 09:11:15;;;;;;;10.98;4.80;;;;;;;22.40;52.19;100260.19;5070800;28;20106;-87
2021/06/24 09:13:44;;;;;;;10.88;4.55;;;;;;;22.49;52.29;100251.19;5070661;28;20056;-87
2021/06/24 09:16:20;;;;;;;6.18;4.53;;;;;;;22.55;51.01;100254.28;5071751;28;20106;-87
2021/06/24 09:18:47;;;;;;;7.55;5.05;;;;;;;22.65;51.60;100250.53;5071875;28;20053;-85
2021/06/24 09:21:19;;;;;;;7.85;5.18;;;;;;;22.69;50.85;100245.69;5072005;28;20105;-85
2021/06/24 09:23:48;;;;;;;8.82;4.90;;;;;;;22.77;51.38;100251.13;5070624;28;20052;-88
2021/06/24 09:26:16;;;;;;;9.52;4.78;;;;;;;22.85;51.80;100254.88;5070881;28;20098;-86
2021/06/24 09:28:52;;;;;;;6.40;5.00;;;;;;;22.91;51.78;100251.56;5072031;28;20052;-85
2021/06/24 09:31:34;;;;;;;7.15;5.13;;;;;;;23.00;51.94;100247.97;5071768;28;20413;-87
2021/06/24 09:34:09;;;;;;;8.10;4.78;;;;;;;23.12;51.16;100245.00;5071451;28;20417;-85
2021/06/24 09:36:37;;;;;;;7.55;5.18;;;;;;;23.22;51.14;100240.38;5070647;28;20056;-85
2021/06/24 09:39:28;;;;;;;6.07;4.95;;;;;;;23.29;51.38;100240.59;5071752;28;20049;-87
2021/06/24 09:42:14;;;;;;;7.07;5.38;;;;;;;23.40;51.57;100247.56;5071813;28;20058;-87
2021/06/24 09:44:43;;;;;;;6.80;5.10;;;;;;;23.54;51.80;100255.00;5070441;28;20068;-87
2021/06/24 09:47:23;;;;;;;5.90;5.20;;;;;;;23.59;50.30;100249.16;5071418;28;20053;-86
2021/06/24 09:50:03;;;;;;;8.43;5.57;;;;;;;23.67;50.65;100240.28;5071078;28;20060;-87
2021/06/24 09:52:31;;;;;;;6.78;5.80;;;;;;;23.74;50.48;100235.09;5070401;28;20053;-85
2021/06/24 09:55:15;;;;;;;7.50;5.22;;;;;;;23.75;49.78;100240.31;5070345;28;20063;-88
2021/06/24 09:57:43;;;;;;;12.65;5.45;;;;;;;23.82;49.48;100244.03;5071653;28;20509;-85
2021/06/24 10:00:19;;;;;;;6.72;5.38;;;;;;;23.79;49.15;100240.81;5070425;28;20122;-88
2021/06/24 10:03:07;;;;;;;9.82;5.25;;;;;;;23.79;49.73;100243.50;5070773;28;20102;-88
2021/06/24 10:05:36;;;;;;;7.05;5.43;;;;;;;23.85;49.69;100242.03;5071293;28;20059;-88
2021/06/24 10:08:03;;;;;;;7.57;5.18;;;;;;;23.84;49.17;100235.78;5071832;28;20375;-86
2021/06/24 10:10:30;;;;;;;6.72;5.00;;;;;;;23.81;49.04;100236.97;5071625;28;20052;-87
2021/06/24 10:12:57;;;;;;;8.18;5.70;;;;;;;23.80;48.84;100237.97;5071536;28;20484;-88
2021/06/24 10:15:24;;;;;;;6.32;5.25;;;;;;;23.77;49.15;100246.34;5071268;28;20128;-85
2021/06/24 10:17:54;;;;;;;8.27;5.72;;;;;;;23.76;48.86;100247.38;5071330;28;20414;-85
2021/06/24 10:20:23;;;;;;;7.55;5.07;;;;;;;23.81;48.63;100246.91;5070423;28;20057;-87
2021/06/24 10:23:00;;;;;;;7.55;5.43;;;;;;;23.87;49.13;100242.69;5070079;28;20048;-84
2021/06/24 10:25:28;;;;;;;6.53;5.05;;;;;;;23.98;49.28;100241.53;5073203;28;20102;-88
2021/06/24 10:27:57;;;;;;;5.53;5.03;;;;;;;24.08;49.23;100243.09;5073794;28;20072;-88
2021/06/24 10:30:25;;;;;;;11.18;6.18;;;;;;;24.23;49.69;100250.56;5074601;28;20048;-86
2021/06/24 10:32:59;;;;;;;8.77;5.72;;;;;;;24.33;48.36;100242.31;5074111;28;20060;-85
2021/06/24 10:35:31;;;;;;;6.13;5.07;;;;;;;24.46;47.73;100252.59;5073975;28;20054;-86
2021/06/24 10:37:59;;;;;;;7.07;5.15;;;;;;;24.56;47.51;100247.88;5074286;28;20051;-86
2021/06/24 10:40:32;;;;;;;5.55;4.88;;;;;;;24.65;48.79;100237.13;5074819;28;20052;-87
2021/06/24 10:43:01;;;;;;;10.05;5.50;;;;;;;24.71;48.21;100237.28;5073133;28;20056;-86
2021/06/24 10:45:29;;;;;;;6.40;5.03;;;;;;;24.83;48.48;100239.66;5074579;28;20513;-86
2021/06/24 10:47:58;;;;;;;7.30;5.10;;;;;;;24.94;48.97;100230.41;5074633;28;20087;-87
2021/06/24 10:50:29;;;;;;;5.50;4.97;;;;;;;25.13;49.03;100234.59;5073479;28;20056;-88
2021/06/24 10:53:02;;;;;;;7.28;5.40;;;;;;;25.42;48.33;100224.25;5074787;28;20049;-86
2021/06/24 10:55:32;;;;;;;6.93;5.03;;;;;;;25.79;48.10;100233.53;5074900;28;20185;-87
2021/06/24 10:57:59;;;;;;;6.55;5.22;;;;;;;26.14;48.68;100225.94;5074436;28;20433;-86
2021/06/24 11:00:38;;;;;;;7.07;5.32;;;;;;;26.51;46.72;100223.47;5074321;28;20052;-88
2021/06/24 11:03:08;;;;;;;6.43;5.00;;;;;;;26.96;47.09;100216.53;5074246;28;20059;-86
2021/06/24 11:05:42;;;;;;;7.55;5.32;;;;;;;27.41;46.46;100213.84;5074043;28;20052;-86
2021/06/24 11:08:12;;;;;;;8.15;5.15;;;;;;;27.89;46.70;100209.88;5074245;28;20048;-88
2021/06/24 11:10:58;;;;;;;5.47;4.53;;;;;;;28.34;44.95;100217.88;5072835;28;20532;-86
2021/06/24 11:16:09;;;;;;;6.10;4.50;;;;;;;29.08;43.04;100212.22;5074283;28;20048;-88
2021/06/24 11:18:36;;;;;;;6.07;4.70;;;;;;;29.29;42.53;100215.88;5074003;28;20063;-89
2021/06/24 11:21:07;;;;;;;10.07;4.30;;;;;;;29.34;41.18;100213.41;5072357;28;20433;-86
2021/06/24 11:23:41;;;;;;;6.30;4.22;;;;;;;29.23;40.01;100212.09;5074119;28;20056;-87
2021/06/24 11:26:28;;;;;;;6.90;4.93;;;;;;;28.98;40.28;100216.13;5073947;28;20060;-86
2021/06/24 11:29:03;;;;;;;9.18;4.50;;;;;;;28.75;40.08;100217.16;5073914;28;20048;-88